createdAt,value
2018-04-11T00:00:21.585Z,8.26
2018-04-11T00:01:21.639Z,8.17
2018-04-11T00:02:21.576Z,8.17
2018-04-11T00:03:21.615Z,8.19
2018-04-11T00:04:21.579Z,8.12
2018-04-11T00:05:21.583Z,8.13
2018-04-11T00:06:21.654Z,8.1
2018-04-11T00:07:21.596Z,8.15
2018-04-11T00:08:21.653Z,8.09
2018-04-11T00:09:21.615Z,8.14
2018-04-11T00:10:21.621Z,8.06
2018-04-11T00:11:21.634Z,8.08
2018-04-11T00:12:21.612Z,8.1
2018-04-11T00:13:21.638Z,8.15
2018-04-11T00:14:21.658Z,8.11
2018-04-11T00:15:21.609Z,8.19
2018-04-11T00:16:21.643Z,8.06
2018-04-11T00:17:21.623Z,8.13
2018-04-11T00:18:21.620Z,8.17
2018-04-11T00:19:21.617Z,8.16
2018-04-11T00:20:21.645Z,8.27
2018-04-11T00:21:21.643Z,8.32
2018-04-11T00:22:21.662Z,8.23
2018-04-11T00:23:21.682Z,8.18
2018-04-11T00:24:21.668Z,8.13
2018-04-11T00:25:21.738Z,8.16
2018-04-11T00:26:21.673Z,8.12
2018-04-11T00:27:21.677Z,8.16
2018-04-11T00:28:21.714Z,8.12
2018-04-11T00:29:21.726Z,8.04
2018-04-11T00:30:21.667Z,8.13
2018-04-11T00:31:21.687Z,8.11
2018-04-11T00:32:21.677Z,8.16
2018-04-11T00:33:21.743Z,8.06
2018-04-11T00:34:21.684Z,8.2
2018-04-11T00:35:21.852Z,8.2
2018-04-11T00:36:21.704Z,8.19
2018-04-11T00:37:21.667Z,8.17
2018-04-11T00:38:21.714Z,8.13
2018-04-11T00:39:21.690Z,8.11
2018-04-11T00:40:21.676Z,8.24
2018-04-11T00:41:21.735Z,8.15
2018-04-11T00:42:21.704Z,8.09
2018-04-11T00:43:21.698Z,8.25
2018-04-11T00:44:21.858Z,8.17
2018-04-11T00:45:21.814Z,8.11
2018-04-11T00:46:21.989Z,8.09
2018-04-11T00:47:21.738Z,8.08
2018-04-11T00:48:21.732Z,8.13
2018-04-11T00:49:21.737Z,8.12
2018-04-11T00:50:21.742Z,8.08
2018-04-11T00:51:21.720Z,8.06
2018-04-11T00:52:21.764Z,8.13
2018-04-11T00:53:21.785Z,8.1
2018-04-11T00:54:21.820Z,8.03
2018-04-11T00:55:21.729Z,8.05
2018-04-11T00:56:21.892Z,8.17
2018-04-11T00:57:21.729Z,8.16
2018-04-11T00:58:21.776Z,8.1
2018-04-11T00:59:21.772Z,8.15
2018-04-11T01:00:21.753Z,8.1
2018-04-11T01:01:21.738Z,8.08
2018-04-11T01:02:21.743Z,8.12
2018-04-11T01:03:21.744Z,8.06
2018-04-11T01:04:21.775Z,8.04
2018-04-11T01:05:24.056Z,8.04
2018-04-11T01:06:21.770Z,8.06
2018-04-11T01:07:21.745Z,8.06
2018-04-11T01:08:21.802Z,8.03
2018-04-11T01:09:21.754Z,8.11
2018-04-11T01:10:21.767Z,8.1
2018-04-11T01:11:21.755Z,8.05
2018-04-11T01:12:21.762Z,7.97
2018-04-11T01:13:21.766Z,7.99
2018-04-11T01:14:21.803Z,7.95
2018-04-11T01:15:21.809Z,8.08
2018-04-11T01:16:21.830Z,8.04
2018-04-11T01:17:21.800Z,8.04
2018-04-11T01:18:21.803Z,7.99
2018-04-11T01:19:21.804Z,7.95
2018-04-11T01:20:21.793Z,7.97
2018-04-11T01:21:21.820Z,8.03
2018-04-11T01:22:21.854Z,7.94
2018-04-11T01:23:21.815Z,7.95
2018-04-11T01:24:21.913Z,8.07
2018-04-11T01:25:21.798Z,8.08
2018-04-11T01:26:21.834Z,8.04
2018-04-11T01:27:21.819Z,8
2018-04-11T01:28:21.949Z,7.99
2018-04-11T01:29:21.835Z,7.92
2018-04-11T01:30:21.814Z,7.89
2018-04-11T01:31:21.847Z,7.89
2018-04-11T01:32:21.850Z,7.89
2018-04-11T01:33:21.850Z,8
2018-04-11T01:34:21.865Z,7.94
2018-04-11T01:35:21.855Z,8.05
2018-04-11T01:36:21.854Z,8.05
2018-04-11T01:37:21.877Z,8.02
2018-04-11T01:38:21.976Z,8
2018-04-11T01:39:21.870Z,7.93
2018-04-11T01:40:21.863Z,7.91
2018-04-11T01:41:21.895Z,7.94
2018-04-11T01:42:22.114Z,7.92
2018-04-11T01:43:21.930Z,7.91
2018-04-11T01:44:21.887Z,7.89
2018-04-11T01:45:21.879Z,7.95
2018-04-11T01:46:21.937Z,7.99
2018-04-11T01:47:21.894Z,7.91
2018-04-11T01:48:21.902Z,7.91
2018-04-11T01:49:21.889Z,7.86
2018-04-11T01:50:22.059Z,7.83
2018-04-11T01:51:21.893Z,7.84
2018-04-11T01:52:21.939Z,7.89
2018-04-11T01:53:21.903Z,7.82
2018-04-11T01:54:21.905Z,7.92
2018-04-11T01:55:21.919Z,7.94
2018-04-11T01:56:21.924Z,7.9
2018-04-11T01:57:21.906Z,7.85
2018-04-11T01:58:21.933Z,7.85
2018-04-11T01:59:21.927Z,7.84
2018-04-11T02:00:21.922Z,7.87
2018-04-11T02:01:21.918Z,7.89
2018-04-11T02:02:21.930Z,7.87
2018-04-11T02:03:21.920Z,7.89
2018-04-11T02:04:21.992Z,7.85
2018-04-11T02:05:22.059Z,7.81
2018-04-11T02:06:21.954Z,7.82
2018-04-11T02:07:22.031Z,7.86
2018-04-11T02:08:21.963Z,7.79
2018-04-11T02:09:21.960Z,7.81
2018-04-11T02:10:21.955Z,7.87
2018-04-11T02:11:21.979Z,7.79
2018-04-11T02:12:21.980Z,7.83
2018-04-11T02:13:21.950Z,7.81
2018-04-11T02:14:21.975Z,7.79
2018-04-11T02:15:22.000Z,7.74
2018-04-11T02:16:21.998Z,7.73
2018-04-11T02:17:21.964Z,7.72
2018-04-11T02:18:21.996Z,7.76
2018-04-11T02:19:21.979Z,7.75
2018-04-11T02:20:22.114Z,7.72
2018-04-11T02:21:21.996Z,7.74
2018-04-11T02:22:21.995Z,7.75
2018-04-11T02:23:21.963Z,7.71
2018-04-11T02:24:21.975Z,7.69
2018-04-11T02:25:22.027Z,7.68
2018-04-11T02:26:22.003Z,7.7
2018-04-11T02:27:21.983Z,7.71
2018-04-11T02:28:22.263Z,7.63
2018-04-11T02:29:22.035Z,7.67
2018-04-11T02:30:22.095Z,7.68
2018-04-11T02:31:22.018Z,7.65
2018-04-11T02:32:22.020Z,7.63
2018-04-11T02:33:22.025Z,7.68
2018-04-11T02:34:22.126Z,7.74
2018-04-11T02:35:22.036Z,7.66
2018-04-11T02:36:22.056Z,7.65
2018-04-11T02:37:22.097Z,7.66
2018-04-11T02:38:22.140Z,7.75
2018-04-11T02:39:22.047Z,7.7
2018-04-11T02:40:22.088Z,7.7
2018-04-11T02:41:22.099Z,7.75
2018-04-11T02:42:22.082Z,7.81
2018-04-11T02:43:22.064Z,7.82
2018-04-11T02:44:22.047Z,7.74
2018-04-11T02:45:22.068Z,7.72
2018-04-11T02:46:22.048Z,7.82
2018-04-11T02:47:22.077Z,7.74
2018-04-11T02:48:22.096Z,7.68
2018-04-11T02:49:22.061Z,7.68
2018-04-11T02:50:22.106Z,7.76
2018-04-11T02:51:22.103Z,7.73
2018-04-11T02:52:22.082Z,7.81
2018-04-11T02:53:22.077Z,7.74
2018-04-11T02:54:22.094Z,7.7
2018-04-11T02:55:22.101Z,7.69
2018-04-11T02:56:22.095Z,7.65
2018-04-11T02:57:22.238Z,7.68
2018-04-11T02:58:22.090Z,7.68
2018-04-11T02:59:22.100Z,7.73
2018-04-11T03:00:22.151Z,7.72
2018-04-11T03:01:22.105Z,7.73
2018-04-11T03:02:22.113Z,7.7
2018-04-11T03:03:22.193Z,7.62
2018-04-11T03:04:22.123Z,7.63
2018-04-11T03:05:22.115Z,7.65
2018-04-11T03:06:22.356Z,7.67
2018-04-11T03:07:22.185Z,7.67
2018-04-11T03:08:22.117Z,7.68
2018-04-11T03:09:22.446Z,7.62
2018-04-11T03:10:22.142Z,7.62
2018-04-11T03:11:22.261Z,7.64
2018-04-11T03:12:22.144Z,7.64
2018-04-11T03:13:22.135Z,7.66
2018-04-11T03:14:22.133Z,7.65
2018-04-11T03:15:22.168Z,7.63
2018-04-11T03:16:22.143Z,7.68
2018-04-11T03:17:22.156Z,7.68
2018-04-11T03:18:22.157Z,7.66
2018-04-11T03:19:22.222Z,7.74
2018-04-11T03:20:22.162Z,7.69
2018-04-11T03:21:22.155Z,7.64
2018-04-11T03:22:22.162Z,7.65
2018-04-11T03:23:22.156Z,7.65
2018-04-11T03:24:22.168Z,7.68
2018-04-11T03:25:22.162Z,7.64
2018-04-11T03:26:22.167Z,7.66
2018-04-11T03:27:22.176Z,7.61
2018-04-11T03:28:22.187Z,7.66
2018-04-11T03:29:22.234Z,7.65
2018-04-11T03:30:22.211Z,7.67
2018-04-11T03:31:22.191Z,7.65
2018-04-11T03:32:22.186Z,7.64
2018-04-11T03:33:22.186Z,7.62
2018-04-11T03:34:22.264Z,7.58
2018-04-11T03:35:22.189Z,7.63
2018-04-11T03:36:22.216Z,7.63
2018-04-11T03:37:22.201Z,7.61
2018-04-11T03:38:22.207Z,7.61
2018-04-11T03:39:22.198Z,7.53
2018-04-11T03:40:22.222Z,7.5
2018-04-11T03:41:22.213Z,7.57
2018-04-11T03:42:22.210Z,7.6
2018-04-11T03:43:22.205Z,7.61
2018-04-11T03:44:22.219Z,7.56
2018-04-11T03:45:22.284Z,7.6
2018-04-11T03:46:22.218Z,7.59
2018-04-11T03:47:22.239Z,7.54
2018-04-11T03:48:22.254Z,7.53
2018-04-11T03:49:22.229Z,7.49
2018-04-11T03:50:22.253Z,7.48
2018-04-11T03:51:22.251Z,7.45
2018-04-11T03:52:22.233Z,7.51
2018-04-11T03:53:22.270Z,7.6
2018-04-11T03:54:22.243Z,7.56
2018-04-11T03:55:22.265Z,7.51
2018-04-11T03:56:22.260Z,7.57
2018-04-11T03:57:22.255Z,7.55
2018-04-11T03:58:22.260Z,7.51
2018-04-11T03:59:22.380Z,7.46
2018-04-11T04:00:22.300Z,7.47
2018-04-11T04:01:22.268Z,7.46
2018-04-11T04:02:22.303Z,7.45
2018-04-11T04:03:22.313Z,7.47
2018-04-11T04:04:22.273Z,7.44
2018-04-11T04:05:22.278Z,7.45
2018-04-11T04:06:22.296Z,7.45
2018-04-11T04:07:22.282Z,7.46
2018-04-11T04:08:22.322Z,7.43
2018-04-11T04:09:22.274Z,7.44
2018-04-11T04:10:22.331Z,7.42
2018-04-11T04:11:22.300Z,7.39
2018-04-11T04:12:22.306Z,7.42
2018-04-11T04:13:22.314Z,7.41
2018-04-11T04:14:22.330Z,7.48
2018-04-11T04:15:22.309Z,7.45
2018-04-11T04:16:22.316Z,7.43
2018-04-11T04:17:22.355Z,7.46
2018-04-11T04:18:22.330Z,7.45
2018-04-11T04:19:22.339Z,7.45
2018-04-11T04:20:22.330Z,7.43
2018-04-11T04:21:22.336Z,7.43
2018-04-11T04:22:22.337Z,7.42
2018-04-11T04:23:22.324Z,7.45
2018-04-11T04:24:22.390Z,7.43
2018-04-11T04:25:22.339Z,7.4
2018-04-11T04:26:22.370Z,7.36
2018-04-11T04:27:22.348Z,7.38
2018-04-11T04:28:22.353Z,7.33
2018-04-11T04:29:22.362Z,7.35
2018-04-11T04:30:22.598Z,7.35
2018-04-11T04:31:22.363Z,7.34
2018-04-11T04:32:22.352Z,7.36
2018-04-11T04:33:22.346Z,7.35
2018-04-11T04:34:22.367Z,7.36
2018-04-11T04:35:22.384Z,7.39
2018-04-11T04:36:22.396Z,7.37
2018-04-11T04:37:22.359Z,7.31
2018-04-11T04:38:22.366Z,7.31
2018-04-11T04:39:22.373Z,7.32
2018-04-11T04:40:22.396Z,7.32
2018-04-11T04:41:22.401Z,7.3
2018-04-11T04:42:22.377Z,7.32
2018-04-11T04:43:22.386Z,7.31
2018-04-11T04:44:22.407Z,7.26
2018-04-11T04:45:22.396Z,7.31
2018-04-11T04:46:22.409Z,7.26
2018-04-11T04:47:22.663Z,7.27
2018-04-11T04:48:22.422Z,7.26
2018-04-11T04:49:22.410Z,7.25
2018-04-11T04:50:22.411Z,7.23
2018-04-11T04:51:22.428Z,7.29
2018-04-11T04:52:22.417Z,7.25
2018-04-11T04:53:22.429Z,7.22
2018-04-11T04:54:22.459Z,7.24
2018-04-11T04:55:22.410Z,7.23
2018-04-11T04:56:22.470Z,7.26
2018-04-11T04:57:22.425Z,7.26
2018-04-11T04:58:22.583Z,7.28
2018-04-11T04:59:22.439Z,7.26
2018-04-11T05:00:22.458Z,7.25
2018-04-11T05:01:22.452Z,7.26
2018-04-11T05:02:22.432Z,7.27
2018-04-11T05:03:22.527Z,7.27
2018-04-11T05:04:22.459Z,7.24
2018-04-11T05:05:22.463Z,7.24
2018-04-11T05:06:22.474Z,7.25
2018-04-11T05:07:22.485Z,7.21
2018-04-11T05:08:22.506Z,7.22
2018-04-11T05:09:22.480Z,7.22
2018-04-11T05:10:22.476Z,7.2
2018-04-11T05:11:22.461Z,7.24
2018-04-11T05:12:22.475Z,7.21
2018-04-11T05:13:22.482Z,7.25
2018-04-11T05:14:22.482Z,7.24
2018-04-11T05:15:22.545Z,7.25
2018-04-11T05:16:22.501Z,7.32
2018-04-11T05:17:22.545Z,7.33
2018-04-11T05:18:22.629Z,7.35
2018-04-11T05:19:22.520Z,7.37
2018-04-11T05:20:22.529Z,7.32
2018-04-11T05:21:22.598Z,7.34
2018-04-11T05:22:22.533Z,7.31
2018-04-11T05:23:22.722Z,7.35
2018-04-11T05:24:22.675Z,7.39
2018-04-11T05:25:22.610Z,7.38
2018-04-11T05:26:22.575Z,7.35
2018-04-11T05:27:22.559Z,7.34
2018-04-11T05:28:22.642Z,7.3
2018-04-11T05:29:22.555Z,7.34
2018-04-11T05:30:22.591Z,7.3
2018-04-11T05:31:22.594Z,7.33
2018-04-11T05:32:22.552Z,7.43
2018-04-11T05:33:22.561Z,7.39
2018-04-11T05:34:22.545Z,7.37
2018-04-11T05:35:22.566Z,7.38
2018-04-11T05:36:22.585Z,7.38
2018-04-11T05:37:22.563Z,7.34
2018-04-11T05:38:22.547Z,7.37
2018-04-11T05:39:22.594Z,7.41
2018-04-11T05:40:22.571Z,7.4
2018-04-11T05:41:22.598Z,7.41
2018-04-11T05:42:22.610Z,7.44
2018-04-11T05:43:22.571Z,7.44
2018-04-11T05:44:22.574Z,7.42
2018-04-11T05:45:22.559Z,7.45
2018-04-11T05:46:22.609Z,7.5
2018-04-11T05:47:22.743Z,7.44
2018-04-11T05:48:22.578Z,7.45
2018-04-11T05:49:22.605Z,7.42
2018-04-11T05:50:22.585Z,7.48
2018-04-11T05:51:22.614Z,7.51
2018-04-11T05:52:22.618Z,7.47
2018-04-11T05:53:22.791Z,7.57
2018-04-11T05:54:22.617Z,7.53
2018-04-11T05:55:22.593Z,7.5
2018-04-11T05:56:22.594Z,7.48
2018-04-11T05:57:22.649Z,7.54
2018-04-11T05:58:22.606Z,7.53
2018-04-11T05:59:22.649Z,7.52
2018-04-11T06:00:22.623Z,7.51
2018-04-11T06:01:22.689Z,7.51
2018-04-11T06:02:22.684Z,7.51
2018-04-11T06:03:22.615Z,7.58
2018-04-11T06:04:22.633Z,7.61
2018-04-11T06:05:22.633Z,7.6
2018-04-11T06:06:22.629Z,7.65
2018-04-11T06:07:22.790Z,7.68
2018-04-11T06:08:22.646Z,7.66
2018-04-11T06:09:22.655Z,7.67
2018-04-11T06:10:22.765Z,7.65
2018-04-11T06:11:22.737Z,7.65
2018-04-11T06:12:22.656Z,7.66
2018-04-11T06:13:22.704Z,7.72
2018-04-11T06:14:22.680Z,7.67
2018-04-11T06:15:22.689Z,7.8
2018-04-11T06:16:22.670Z,7.72
2018-04-11T06:17:22.639Z,7.8
2018-04-11T06:18:22.718Z,7.77
2018-04-11T06:19:22.685Z,7.77
2018-04-11T06:20:22.669Z,7.81
2018-04-11T06:21:22.658Z,7.83
2018-04-11T06:22:22.793Z,7.79
2018-04-11T06:23:22.678Z,7.81
2018-04-11T06:24:22.699Z,7.81
2018-04-11T06:25:22.694Z,7.77
2018-04-11T06:26:22.681Z,7.85
2018-04-11T06:27:22.707Z,7.8
2018-04-11T06:28:22.692Z,7.85
2018-04-11T06:29:22.737Z,7.83
2018-04-11T06:30:23.051Z,7.86
2018-04-11T06:31:22.711Z,7.94
2018-04-11T06:32:22.716Z,7.92
2018-04-11T06:33:22.711Z,7.91
2018-04-11T06:34:22.723Z,7.94
2018-04-11T06:35:22.723Z,7.92
2018-04-11T06:36:22.705Z,7.93
2018-04-11T06:37:22.754Z,7.94
2018-04-11T06:38:22.743Z,7.96
2018-04-11T06:39:22.749Z,7.93
2018-04-11T06:40:22.803Z,7.94
2018-04-11T06:41:22.760Z,7.93
2018-04-11T06:42:22.825Z,7.93
2018-04-11T06:43:22.708Z,7.92
2018-04-11T06:44:22.735Z,7.91
2018-04-11T06:45:22.801Z,7.98
2018-04-11T06:46:22.749Z,7.97
2018-04-11T06:47:23.189Z,7.96
2018-04-11T06:48:22.786Z,8.07
2018-04-11T06:49:22.760Z,8.12
2018-04-11T06:50:22.781Z,8.09
2018-04-11T06:51:22.756Z,8.07
2018-04-11T06:52:22.760Z,8.11
2018-04-11T06:53:22.767Z,8.14
2018-04-11T06:54:22.760Z,8.13
2018-04-11T06:55:22.946Z,8.15
2018-04-11T06:56:22.845Z,8.08
2018-04-11T06:57:22.783Z,8.17
2018-04-11T06:58:22.825Z,8.16
2018-04-11T06:59:23.053Z,8.16
2018-04-11T07:00:22.787Z,8.22
2018-04-11T07:01:22.758Z,8.2
2018-04-11T07:02:22.816Z,8.22
2018-04-11T07:03:22.881Z,8.29
2018-04-11T07:04:22.799Z,8.28
2018-04-11T07:05:22.789Z,8.29
2018-04-11T07:06:22.801Z,8.25
2018-04-11T07:07:22.916Z,8.24
2018-04-11T07:08:22.793Z,8.2
2018-04-11T07:09:22.821Z,8.27
2018-04-11T07:10:22.816Z,8.29
2018-04-11T07:11:22.825Z,8.21
2018-04-11T07:12:22.826Z,8.26
2018-04-11T07:13:22.860Z,8.25
2018-04-11T07:14:22.833Z,8.24
2018-04-11T07:15:22.886Z,8.3
2018-04-11T07:16:22.823Z,8.34
2018-04-11T07:17:22.829Z,8.32
2018-04-11T07:18:22.930Z,8.3
2018-04-11T07:19:22.831Z,8.36
2018-04-11T07:20:22.882Z,8.3
2018-04-11T07:21:22.858Z,8.39
2018-04-11T07:22:22.841Z,8.33
2018-04-11T07:23:22.915Z,8.22
2018-04-11T07:24:22.859Z,8.27
2018-04-11T07:25:22.875Z,8.31
2018-04-11T07:26:22.871Z,8.31
2018-04-11T07:27:22.845Z,8.23
2018-04-11T07:28:22.848Z,8.27
2018-04-11T07:29:22.897Z,8.28
2018-04-11T07:30:22.856Z,8.17
2018-04-11T07:31:22.896Z,8.24
2018-04-11T07:32:22.974Z,8.22
2018-04-11T07:33:22.892Z,8.27
2018-04-11T07:34:22.904Z,8.25
2018-04-11T07:35:22.898Z,8.29
2018-04-11T07:36:22.885Z,8.32
2018-04-11T07:37:22.881Z,8.36
2018-04-11T07:38:22.884Z,8.24
2018-04-11T07:39:22.879Z,8.39
2018-04-11T07:40:23.166Z,8.33
2018-04-11T07:41:22.876Z,8.14
2018-04-11T07:42:22.887Z,8.19
2018-04-11T07:43:22.903Z,8.22
2018-04-11T07:44:22.901Z,8.15
2018-04-11T07:45:22.910Z,8.22
2018-04-11T07:46:22.905Z,8.24
2018-04-11T07:47:22.916Z,8.2
2018-04-11T07:48:22.919Z,8.16
2018-04-11T07:49:22.916Z,8.22
2018-04-11T07:50:22.916Z,8.19
2018-04-11T07:51:22.910Z,8.18
2018-04-11T07:52:22.929Z,8.13
2018-04-11T07:53:22.932Z,8.15
2018-04-11T07:54:22.935Z,8.2
2018-04-11T07:55:22.917Z,8.16
2018-04-11T07:56:22.914Z,8.15
2018-04-11T07:57:22.962Z,8.05
2018-04-11T07:58:22.947Z,8.15
2018-04-11T07:59:22.922Z,8.17
2018-04-11T08:00:22.932Z,8.23
2018-04-11T08:01:22.933Z,8.25
2018-04-11T08:02:23.046Z,8.24
2018-04-11T08:03:23.835Z,8.16
2018-04-11T08:04:22.985Z,8.2
2018-04-11T08:05:22.988Z,8.26
2018-04-11T08:06:23.054Z,8.34
2018-04-11T08:07:23.003Z,8.37
2018-04-11T08:08:22.987Z,8.49
2018-04-11T08:09:22.974Z,8.29
2018-04-11T08:10:25.273Z,8.33
2018-04-11T08:11:22.986Z,8.11
2018-04-11T08:12:22.986Z,8.02
2018-04-11T08:13:23.020Z,8.04
2018-04-11T08:14:23.028Z,8.07
2018-04-11T08:15:23.010Z,7.96
2018-04-11T08:16:23.144Z,7.98
2018-04-11T08:17:23.013Z,8.1
2018-04-11T08:18:23.032Z,8.08
2018-04-11T08:19:23.019Z,8.12
2018-04-11T08:20:23.038Z,8.04
2018-04-11T08:21:23.021Z,7.96
2018-04-11T08:22:23.121Z,8.08
2018-04-11T08:23:23.033Z,8.15
2018-04-11T08:24:23.035Z,8.37
2018-04-11T08:25:23.029Z,8.51
2018-04-11T08:26:23.038Z,8.44
2018-04-11T08:27:23.024Z,8.28
2018-04-11T08:28:23.031Z,8.09
2018-04-11T08:29:23.113Z,8.07
2018-04-11T08:30:23.046Z,8.08
2018-04-11T08:31:23.083Z,8
2018-04-11T08:32:23.046Z,8.01
2018-04-11T08:33:23.026Z,8.12
2018-04-11T08:34:23.047Z,7.99
2018-04-11T08:35:23.088Z,8.01
2018-04-11T08:36:23.045Z,8.08
2018-04-11T08:37:23.179Z,7.93
2018-04-11T08:38:23.222Z,7.95
2018-04-11T08:39:23.079Z,7.95
2018-04-11T08:40:23.050Z,8.06
2018-04-11T08:41:23.061Z,7.95
2018-04-11T08:42:23.081Z,8.07
2018-04-11T08:43:23.131Z,8.05
2018-04-11T08:44:23.103Z,8.04
2018-04-11T08:45:23.065Z,8.03
2018-04-11T08:46:23.066Z,8.02
2018-04-11T08:47:23.368Z,8
2018-04-11T08:48:23.108Z,7.95
2018-04-11T08:49:23.111Z,7.7
2018-04-11T08:50:23.097Z,7.7
2018-04-11T08:51:23.106Z,7.74
2018-04-11T08:52:23.092Z,7.71
2018-04-11T08:53:23.131Z,7.81
2018-04-11T08:54:23.108Z,7.82
2018-04-11T08:55:23.116Z,7.93
2018-04-11T08:56:23.099Z,7.67
2018-04-11T08:57:23.184Z,7.8
2018-04-11T08:58:23.138Z,7.83
2018-04-11T08:59:23.111Z,7.75
2018-04-11T09:00:23.115Z,7.92
2018-04-11T09:01:23.121Z,7.84
2018-04-11T09:02:23.165Z,7.89
2018-04-11T09:03:23.160Z,8.04
2018-04-11T09:04:23.138Z,7.87
2018-04-11T09:05:23.338Z,7.99
2018-04-11T09:06:23.192Z,7.78
2018-04-11T09:07:23.157Z,7.7
2018-04-11T09:08:23.214Z,7.71
2018-04-11T09:09:23.163Z,7.7
2018-04-11T09:10:23.169Z,7.6
2018-04-11T09:11:23.176Z,7.64
2018-04-11T09:12:23.151Z,7.58
2018-04-11T09:13:23.214Z,7.59
2018-04-11T09:14:23.187Z,7.71
2018-04-11T09:15:23.166Z,7.8
2018-04-11T09:16:23.176Z,7.74
2018-04-11T09:17:23.180Z,7.65
2018-04-11T09:18:23.208Z,7.71
2018-04-11T09:19:23.235Z,7.83
2018-04-11T09:20:23.205Z,7.9
2018-04-11T09:21:23.175Z,7.8
2018-04-11T09:22:23.183Z,7.86
2018-04-11T09:23:23.235Z,7.82
2018-04-11T09:24:23.182Z,7.79
2018-04-11T09:25:23.298Z,7.74
2018-04-11T09:26:23.221Z,7.79
2018-04-11T09:27:23.193Z,7.87
2018-04-11T09:28:23.236Z,7.98
2018-04-11T09:29:23.243Z,7.75
2018-04-11T09:30:23.221Z,7.64
2018-04-11T09:31:23.204Z,7.54
2018-04-11T09:32:23.221Z,7.62
2018-04-11T09:33:23.262Z,7.59
2018-04-11T09:34:23.251Z,7.43
2018-04-11T09:35:23.229Z,7.61
2018-04-11T09:36:23.226Z,7.54
2018-04-11T09:37:23.256Z,7.77
2018-04-11T09:38:23.248Z,7.98
2018-04-11T09:39:23.228Z,7.92
2018-04-11T09:40:23.249Z,7.75
2018-04-11T09:41:23.242Z,7.74
2018-04-11T09:42:23.262Z,7.69
2018-04-11T09:43:23.344Z,7.5
2018-04-11T09:44:23.368Z,7.61
2018-04-11T09:45:23.278Z,7.67
2018-04-11T09:46:23.298Z,7.73
2018-04-11T09:47:23.275Z,7.81
2018-04-11T09:48:23.299Z,7.88
2018-04-11T09:49:23.299Z,7.97
2018-04-11T09:50:23.289Z,7.95
2018-04-11T09:51:23.275Z,7.96
2018-04-11T09:52:23.428Z,7.95
2018-04-11T09:53:23.325Z,7.92
2018-04-11T09:54:23.286Z,8.01
2018-04-11T09:55:23.359Z,7.84
2018-04-11T09:56:23.297Z,7.82
2018-04-11T09:57:23.289Z,8.03
2018-04-11T09:58:23.291Z,8.08
2018-04-11T09:59:23.289Z,8.19
2018-04-11T10:00:23.796Z,8.3
2018-04-11T10:01:23.320Z,8.13
2018-04-11T10:02:23.322Z,7.58
2018-04-11T10:03:23.325Z,7.77
2018-04-11T10:04:23.332Z,7.76
2018-04-11T10:05:23.305Z,7.63
2018-04-11T10:06:23.317Z,7.42
2018-04-11T10:07:23.335Z,7.28
2018-04-11T10:08:23.340Z,7.27
2018-04-11T10:09:23.332Z,7.33
2018-04-11T10:10:23.352Z,7.57
2018-04-11T10:11:23.321Z,7.54
2018-04-11T10:12:23.343Z,7.6
2018-04-11T10:13:23.369Z,7.18
2018-04-11T10:14:23.356Z,7.02
2018-04-11T10:15:23.363Z,7.15
2018-04-11T10:16:23.335Z,7.43
2018-04-11T10:17:23.362Z,7.58
2018-04-11T10:18:23.360Z,7.31
2018-04-11T10:19:23.354Z,7.31
2018-04-11T10:20:23.365Z,7.23
2018-04-11T10:21:23.393Z,7.34
2018-04-11T10:22:23.370Z,7.5
2018-04-11T10:23:23.416Z,7.44
2018-04-11T10:24:23.366Z,7.43
2018-04-11T10:25:23.381Z,7.72
2018-04-11T10:26:23.404Z,7.36
2018-04-11T10:27:23.390Z,7.46
2018-04-11T10:28:23.411Z,7.54
2018-04-11T10:29:23.386Z,7.79
2018-04-11T10:30:23.403Z,7.97
2018-04-11T10:31:23.393Z,7.71
2018-04-11T10:32:23.401Z,7.5
2018-04-11T10:33:23.475Z,7.58
2018-04-11T10:34:23.440Z,7.3
2018-04-11T10:35:23.399Z,7.27
2018-04-11T10:36:23.424Z,7.02
2018-04-11T10:37:23.389Z,7.28
2018-04-11T10:38:23.397Z,7.28
2018-04-11T10:39:23.415Z,7.48
2018-04-11T10:40:23.486Z,7.09
2018-04-11T10:41:23.426Z,7.16
2018-04-11T10:42:23.436Z,7.19
2018-04-11T10:43:23.430Z,7.24
2018-04-11T10:44:23.439Z,7.34
2018-04-11T10:45:23.446Z,7.23
2018-04-11T10:46:23.450Z,7.24
2018-04-11T10:47:23.442Z,7.31
2018-04-11T10:48:23.438Z,7.24
2018-04-11T10:49:23.453Z,7.26
2018-04-11T10:50:23.451Z,7.12
2018-04-11T10:51:23.437Z,7.33
2018-04-11T10:52:23.450Z,7.32
2018-04-11T10:53:23.703Z,7.37
2018-04-11T10:54:23.464Z,7.53
2018-04-11T10:55:23.505Z,7.47
2018-04-11T10:56:23.442Z,7.12
2018-04-11T10:57:23.484Z,7.33
2018-04-11T10:58:23.672Z,7.36
2018-04-11T10:59:23.482Z,7.17
2018-04-11T11:00:23.495Z,6.92
2018-04-11T11:01:23.486Z,6.94
2018-04-11T11:02:23.489Z,7.08
2018-04-11T11:03:23.518Z,6.89
2018-04-11T11:04:23.465Z,6.81
2018-04-11T11:05:23.492Z,6.64
2018-04-11T11:06:23.484Z,6.72
2018-04-11T11:07:23.499Z,7.21
2018-04-11T11:08:23.651Z,6.57
2018-04-11T11:09:23.493Z,6.33
2018-04-11T11:10:23.512Z,6.71
2018-04-11T11:11:23.494Z,6.27
2018-04-11T11:12:23.512Z,6.11
2018-04-11T11:13:23.594Z,6.42
2018-04-11T11:14:23.517Z,6.56
2018-04-11T11:15:23.548Z,6.34
2018-04-11T11:16:23.808Z,6.43
2018-04-11T11:17:23.501Z,6.76
2018-04-11T11:18:23.595Z,6.97
2018-04-11T11:19:23.551Z,6.77
2018-04-11T11:20:23.580Z,6.78
2018-04-11T11:21:23.631Z,6.19
2018-04-11T11:22:23.548Z,6.35
2018-04-11T11:23:23.542Z,6.65
2018-04-11T11:24:23.545Z,6.86
2018-04-11T11:25:23.576Z,6.73
2018-04-11T11:26:23.571Z,6.82
2018-04-11T11:27:23.557Z,6.97
2018-04-11T11:28:23.591Z,7.02
2018-04-11T11:29:23.542Z,7.01
2018-04-11T11:30:23.589Z,6.95
2018-04-11T11:31:23.569Z,6.9
2018-04-11T11:32:23.550Z,6.56
2018-04-11T11:33:23.593Z,6.5
2018-04-11T11:34:23.644Z,6.61
2018-04-11T11:35:23.566Z,6.51
2018-04-11T11:36:23.569Z,6.58
2018-04-11T11:37:23.630Z,6.54
2018-04-11T11:38:23.788Z,6.62
2018-04-11T11:39:23.583Z,6.76
2018-04-11T11:40:23.589Z,6.75
2018-04-11T11:41:23.635Z,6.49
2018-04-11T11:42:23.600Z,6.48
2018-04-11T11:43:23.644Z,6.49
2018-04-11T11:44:23.601Z,6.36
2018-04-11T11:45:23.621Z,6.39
2018-04-11T11:46:23.611Z,6.45
2018-04-11T11:47:23.623Z,6.5
2018-04-11T11:48:23.700Z,6.6
2018-04-11T11:49:23.654Z,6.67
2018-04-11T11:50:23.638Z,6.56
2018-04-11T11:51:23.661Z,6.45
2018-04-11T11:52:23.628Z,6.69
2018-04-11T11:53:23.789Z,6.81
2018-04-11T11:54:23.636Z,6.69
2018-04-11T11:55:23.635Z,6.55
2018-04-11T11:56:23.773Z,6.39
2018-04-11T11:57:24.020Z,6.5
2018-04-11T11:58:23.646Z,6.47
2018-04-11T11:59:23.643Z,6.62
2018-04-11T12:00:23.723Z,6.84
2018-04-11T12:01:23.676Z,6.72
2018-04-11T12:02:23.668Z,6.85
2018-04-11T12:03:23.678Z,6.92
2018-04-11T12:04:23.695Z,6.87
2018-04-11T12:05:23.672Z,6.96
2018-04-11T12:06:23.667Z,7.27
2018-04-11T12:07:23.680Z,6.81
2018-04-11T12:08:23.679Z,6.58
2018-04-11T12:09:23.682Z,6.59
2018-04-11T12:10:23.693Z,6.62
2018-04-11T12:11:23.701Z,6.81
2018-04-11T12:12:23.675Z,6.83
2018-04-11T12:13:23.746Z,7.15
2018-04-11T12:14:23.711Z,6.74
2018-04-11T12:15:23.711Z,6.59
2018-04-11T12:16:23.689Z,6.65
2018-04-11T12:17:23.829Z,6.68
2018-04-11T12:18:23.691Z,6.62
2018-04-11T12:19:24.127Z,6.73
2018-04-11T12:20:23.800Z,6.78
2018-04-11T12:21:23.741Z,6.89
2018-04-11T12:22:23.776Z,6.84
2018-04-11T12:23:23.820Z,6.99
2018-04-11T12:24:23.776Z,7.06
2018-04-11T12:25:23.731Z,7.1
2018-04-11T12:26:23.775Z,7.04
2018-04-11T12:27:23.760Z,7.17
2018-04-11T12:28:23.854Z,7.22
2018-04-11T12:29:23.773Z,7.16
2018-04-11T12:30:23.760Z,7.09
2018-04-11T12:31:23.774Z,7.12
2018-04-11T12:32:23.832Z,7.03
2018-04-11T12:33:23.771Z,7.2
2018-04-11T12:34:23.762Z,6.56
2018-04-11T12:35:23.760Z,7.04
2018-04-11T12:36:23.795Z,7.18
2018-04-11T12:37:24.138Z,6.99
2018-04-11T12:38:23.770Z,7.15
2018-04-11T12:39:23.826Z,7.1
2018-04-11T12:40:23.862Z,6.95
2018-04-11T12:41:23.808Z,7.2
2018-04-11T12:42:23.891Z,7.11
2018-04-11T12:43:23.842Z,6.62
2018-04-11T12:44:23.875Z,6.27
2018-04-11T12:45:23.819Z,6.44
2018-04-11T12:46:23.823Z,6.64
2018-04-11T12:47:23.792Z,6.66
2018-04-11T12:48:23.916Z,6.58
2018-04-11T12:49:23.857Z,6.35
2018-04-11T12:50:23.837Z,6.51
2018-04-11T12:51:23.802Z,6.46
2018-04-11T12:52:23.802Z,6.35
2018-04-11T12:53:23.827Z,6.41
2018-04-11T12:54:23.856Z,6.44
2018-04-11T12:55:23.817Z,6.58
2018-04-11T12:56:23.817Z,6.54
2018-04-11T12:57:23.881Z,6.54
2018-04-11T12:58:23.834Z,6.6
2018-04-11T12:59:23.829Z,6.55
2018-04-11T13:00:23.841Z,6.41
2018-04-11T13:01:23.828Z,6.66
2018-04-11T13:02:23.980Z,6.54
2018-04-11T13:03:23.857Z,6.81
2018-04-11T13:04:23.897Z,6.81
2018-04-11T13:05:24.059Z,6.67
2018-04-11T13:06:23.918Z,6.63
2018-04-11T13:07:23.959Z,6.58
2018-04-11T13:08:23.885Z,6.58
2018-04-11T13:09:24.198Z,6.61
2018-04-11T13:10:23.949Z,6.56
2018-04-11T13:11:24.900Z,6.71
2018-04-11T13:12:25.411Z,6.66
2018-04-11T13:13:23.950Z,6.76
2018-04-11T13:14:23.927Z,6.72
2018-04-11T13:15:23.920Z,6.98
2018-04-11T13:16:24.587Z,7.19
2018-04-11T13:17:23.985Z,7.15
2018-04-11T13:18:24.438Z,7.24
2018-04-11T13:19:24.741Z,7.18
2018-04-11T13:20:24.014Z,7.17
2018-04-11T13:21:24.059Z,7.25